sensor_id;sensor_type;location;lat;lon;timestamp;pressure;altitude;pressure_sealevel;temperature;humidity
37892;BME280;45797;47.466;9.486;2024-02-26T00:03:53;93864.00;;;11.61;50.50
37892;BME280;45797;47.466;9.486;2024-02-26T00:09:17;93846.28;;;11.63;50.52
37892;BME280;45797;47.466;9.486;2024-02-26T00:14:38;93856.94;;;11.69;50.63
37892;BME280;45797;47.466;9.486;2024-02-26T00:20:01;93854.47;;;11.76;50.19
37892;BME280;45797;47.466;9.486;2024-02-26T00:25:24;93853.84;;;11.82;49.70
37892;BME280;45797;47.466;9.486;2024-02-26T00:30:46;93855.16;;;11.86;50.27
37892;BME280;45797;47.466;9.486;2024-02-26T00:36:09;93870.06;;;11.86;50.30
37892;BME280;45797;47.466;9.486;2024-02-26T00:41:33;93852.69;;;11.85;50.16
37892;BME280;45797;47.466;9.486;2024-02-26T00:46:53;93855.31;;;11.85;49.85
37892;BME280;45797;47.466;9.486;2024-02-26T00:52:14;93853.50;;;11.85;50.00
37892;BME280;45797;47.466;9.486;2024-02-26T00:57:39;93844.66;;;11.86;49.70
37892;BME280;45797;47.466;9.486;2024-02-26T01:03:01;93835.47;;;11.90;49.68
37892;BME280;45797;47.466;9.486;2024-02-26T01:08:21;93837.25;;;11.90;50.07
37892;BME280;45797;47.466;9.486;2024-02-26T01:13:43;93840.69;;;11.90;49.59
37892;BME280;45797;47.466;9.486;2024-02-26T01:19:03;93836.09;;;11.92;49.60
37892;BME280;45797;47.466;9.486;2024-02-26T01:24:33;93825.59;;;11.92;49.38
37892;BME280;45797;47.466;9.486;2024-02-26T01:29:57;93834.78;;;11.96;49.39
37892;BME280;45797;47.466;9.486;2024-02-26T01:35:17;93820.34;;;12.00;49.45
37892;BME280;45797;47.466;9.486;2024-02-26T01:40:50;93820.84;;;12.04;49.30
37892;BME280;45797;47.466;9.486;2024-02-26T01:46:13;93839.03;;;12.06;49.04
37892;BME280;45797;47.466;9.486;2024-02-26T01:51:48;93831.81;;;12.08;49.21
37892;BME280;45797;47.466;9.486;2024-02-26T01:57:09;93841.97;;;12.11;49.45
37892;BME280;45797;47.466;9.486;2024-02-26T02:02:31;93852.13;;;12.14;49.46
37892;BME280;45797;47.466;9.486;2024-02-26T02:07:54;93841.28;;;12.17;49.09
37892;BME280;45797;47.466;9.486;2024-02-26T02:13:15;93856.06;;;12.18;48.79
37892;BME280;45797;47.466;9.486;2024-02-26T02:18:37;93855.22;;;12.17;48.87
37892;BME280;45797;47.466;9.486;2024-02-26T02:23:59;93873.78;;;12.08;49.58
37892;BME280;45797;47.466;9.486;2024-02-26T02:29:22;93880.88;;;11.91;50.10
37892;BME280;45797;47.466;9.486;2024-02-26T02:34:44;93879.06;;;11.67;50.50
37892;BME280;45797;47.466;9.486;2024-02-26T02:40:07;93890.53;;;11.41;51.19
37892;BME280;45797;47.466;9.486;2024-02-26T02:45:30;93889.69;;;11.25;51.25
37892;BME280;45797;47.466;9.486;2024-02-26T02:50:52;93903.91;;;11.06;51.37
37892;BME280;45797;47.466;9.486;2024-02-26T02:56:14;93910.09;;;10.88;52.14
37892;BME280;45797;47.466;9.486;2024-02-26T03:01:50;93910.38;;;10.77;51.73
37892;BME280;45797;47.466;9.486;2024-02-26T03:07:12;93913.31;;;10.66;52.22
37892;BME280;45797;47.466;9.486;2024-02-26T03:12:34;93920.13;;;10.59;52.21
37892;BME280;45797;47.466;9.486;2024-02-26T03:17:55;93935.66;;;10.52;52.32
37892;BME280;45797;47.466;9.486;2024-02-26T03:23:15;93936.59;;;10.43;52.56
37892;BME280;45797;47.466;9.486;2024-02-26T03:28:37;93924.13;;;10.37;52.43
37892;BME280;45797;47.466;9.486;2024-02-26T03:33:57;93926.91;;;10.36;53.05
37892;BME280;45797;47.466;9.486;2024-02-26T03:39:18;93919.06;;;10.36;53.12
37892;BME280;45797;47.466;9.486;2024-02-26T03:44:38;93914.47;;;10.38;52.61
37892;BME280;45797;47.466;9.486;2024-02-26T03:50:03;93915.97;;;10.40;52.94
37892;BME280;45797;47.466;9.486;2024-02-26T03:55:25;93888.81;;;10.41;52.90
37892;BME280;45797;47.466;9.486;2024-02-26T04:00:53;93870.03;;;10.46;53.03
37892;BME280;45797;47.466;9.486;2024-02-26T04:06:14;93833.06;;;10.49;52.61
37892;BME280;45797;47.466;9.486;2024-02-26T04:11:36;93817.38;;;10.49;53.11
37892;BME280;45797;47.466;9.486;2024-02-26T04:17:04;93818.03;;;10.43;53.31
37892;BME280;45797;47.466;9.486;2024-02-26T04:22:24;93838.88;;;10.26;53.02
37892;BME280;45797;47.466;9.486;2024-02-26T04:27:48;93861.16;;;10.05;53.55
37892;BME280;45797;47.466;9.486;2024-02-26T04:33:12;93865.47;;;9.88;54.16
37892;BME280;45797;47.466;9.486;2024-02-26T04:38:33;93863.78;;;9.79;54.09
37892;BME280;45797;47.466;9.486;2024-02-26T04:43:54;93861.78;;;9.72;53.72
37892;BME280;45797;47.466;9.486;2024-02-26T04:49:17;93870.28;;;9.74;54.22
37892;BME280;45797;47.466;9.486;2024-02-26T04:54:37;93869.63;;;9.72;54.25
37892;BME280;45797;47.466;9.486;2024-02-26T05:00:18;93904.19;;;9.66;54.47
37892;BME280;45797;47.466;9.486;2024-02-26T05:05:40;93901.25;;;9.61;54.30
37892;BME280;45797;47.466;9.486;2024-02-26T05:11:18;93915.44;;;9.41;54.84
37892;BME280;45797;47.466;9.486;2024-02-26T05:16:45;93929.41;;;9.32;55.01
37892;BME280;45797;47.466;9.486;2024-02-26T05:22:07;93945.97;;;9.23;55.28
37892;BME280;45797;47.466;9.486;2024-02-26T05:27:28;93942.88;;;9.09;55.50
37892;BME280;45797;47.466;9.486;2024-02-26T05:33:05;93961.22;;;9.00;55.32
37892;BME280;45797;47.466;9.486;2024-02-26T05:38:41;93961.09;;;9.01;55.19
37892;BME280;45797;47.466;9.486;2024-02-26T05:44:03;93966.03;;;9.04;54.71
37892;BME280;45797;47.466;9.486;2024-02-26T05:49:30;93968.94;;;9.01;55.03
37892;BME280;45797;47.466;9.486;2024-02-26T05:54:51;93966.91;;;8.95;55.40
37892;BME280;45797;47.466;9.486;2024-02-26T06:00:13;93973.41;;;8.91;55.19
37892;BME280;45797;47.466;9.486;2024-02-26T06:05:34;93981.22;;;8.91;55.00
37892;BME280;45797;47.466;9.486;2024-02-26T06:11:09;93990.75;;;8.82;55.21
37892;BME280;45797;47.466;9.486;2024-02-26T06:16:31;93986.72;;;8.88;55.02
37892;BME280;45797;47.466;9.486;2024-02-26T06:22:02;94001.03;;;8.84;54.87
37892;BME280;45797;47.466;9.486;2024-02-26T06:27:24;94012.31;;;8.84;55.35
37892;BME280;45797;47.466;9.486;2024-02-26T06:32:45;94026.19;;;8.85;55.40
37892;BME280;45797;47.466;9.486;2024-02-26T06:38:13;94029.22;;;8.80;55.34
37892;BME280;45797;47.466;9.486;2024-02-26T06:43:40;94026.53;;;8.72;55.60
37892;BME280;45797;47.466;9.486;2024-02-26T06:49:00;94037.66;;;8.65;55.63
37892;BME280;45797;47.466;9.486;2024-02-26T06:54:23;94047.03;;;8.57;55.65
37892;BME280;45797;47.466;9.486;2024-02-26T06:59:49;94048.28;;;8.53;55.71
37892;BME280;45797;47.466;9.486;2024-02-26T07:05:11;94045.69;;;8.53;56.00
37892;BME280;45797;47.466;9.486;2024-02-26T07:10:32;94046.19;;;8.57;55.74
37892;BME280;45797;47.466;9.486;2024-02-26T07:15:53;94043.16;;;8.62;55.54
37892;BME280;45797;47.466;9.486;2024-02-26T07:21:16;94049.91;;;8.64;55.79
37892;BME280;45797;47.466;9.486;2024-02-26T07:26:36;94031.47;;;8.66;56.04
37892;BME280;45797;47.466;9.486;2024-02-26T07:31:59;94030.03;;;8.81;55.55
37892;BME280;45797;47.466;9.486;2024-02-26T07:37:31;94041.50;;;8.98;55.30
37892;BME280;45797;47.466;9.486;2024-02-26T07:42:51;94042.47;;;9.24;55.01
37892;BME280;45797;47.466;9.486;2024-02-26T07:48:14;94045.22;;;9.50;54.64
37892;BME280;45797;47.466;9.486;2024-02-26T07:53:34;94052.91;;;9.69;54.83
37892;BME280;45797;47.466;9.486;2024-02-26T07:58:56;94046.94;;;9.77;55.00
37892;BME280;45797;47.466;9.486;2024-02-26T08:04:17;94048.44;;;9.80;54.87
37892;BME280;45797;47.466;9.486;2024-02-26T08:09:38;94044.91;;;9.89;55.09
37892;BME280;45797;47.466;9.486;2024-02-26T08:15:02;94039.59;;;9.98;55.17
37892;BME280;45797;47.466;9.486;2024-02-26T08:20:23;94041.41;;;9.98;55.45
37892;BME280;45797;47.466;9.486;2024-02-26T08:25:46;94024.00;;;9.89;55.38
37892;BME280;45797;47.466;9.486;2024-02-26T08:31:06;94022.38;;;9.88;55.78
37892;BME280;45797;47.466;9.486;2024-02-26T08:36:28;94018.91;;;10.05;55.29
37892;BME280;45797;47.466;9.486;2024-02-26T08:41:58;94017.47;;;10.28;54.97
37892;BME280;45797;47.466;9.486;2024-02-26T08:47:23;94010.59;;;10.53;54.75
37892;BME280;45797;47.466;9.486;2024-02-26T08:52:45;94015.09;;;10.69;54.71
37892;BME280;45797;47.466;9.486;2024-02-26T08:58:08;94032.31;;;10.72;54.96
37892;BME280;45797;47.466;9.486;2024-02-26T09:03:29;94032.41;;;10.62;54.81
37892;BME280;45797;47.466;9.486;2024-02-26T09:08:49;94033.88;;;10.39;55.77
37892;BME280;45797;47.466;9.486;2024-02-26T09:14:12;94039.94;;;10.21;55.82
37892;BME280;45797;47.466;9.486;2024-02-26T09:19:34;94039.75;;;10.15;56.12
37892;BME280;45797;47.466;9.486;2024-02-26T09:25:01;94038.06;;;10.23;55.95
37892;BME280;45797;47.466;9.486;2024-02-26T09:30:24;94043.59;;;10.46;55.51
37892;BME280;45797;47.466;9.486;2024-02-26T09:35:51;94045.56;;;10.78;54.26
37892;BME280;45797;47.466;9.486;2024-02-26T09:41:15;94047.78;;;10.91;54.40
37892;BME280;45797;47.466;9.486;2024-02-26T09:46:43;94055.53;;;11.01;54.26
37892;BME280;45797;47.466;9.486;2024-02-26T09:52:08;94058.19;;;11.09;53.87
37892;BME280;45797;47.466;9.486;2024-02-26T09:57:29;94056.41;;;11.09;54.34
37892;BME280;45797;47.466;9.486;2024-02-26T10:02:51;94064.78;;;11.21;54.16
37892;BME280;45797;47.466;9.486;2024-02-26T10:08:14;94076.25;;;11.20;53.99
37892;BME280;45797;47.466;9.486;2024-02-26T10:13:35;94079.88;;;11.27;54.15
37892;BME280;45797;47.466;9.486;2024-02-26T10:18:57;94082.22;;;11.38;53.72
37892;BME280;45797;47.466;9.486;2024-02-26T10:24:18;94082.25;;;11.55;53.49
37892;BME280;45797;47.466;9.486;2024-02-26T10:29:39;94080.84;;;11.68;53.38
37892;BME280;45797;47.466;9.486;2024-02-26T10:35:09;94081.75;;;11.85;53.15
37892;BME280;45797;47.466;9.486;2024-02-26T10:40:31;94083.09;;;12.14;52.86
37892;BME280;45797;47.466;9.486;2024-02-26T10:45:51;94084.72;;;12.31;52.14
37892;BME280;45797;47.466;9.486;2024-02-26T10:51:13;94090.13;;;12.29;52.65
37892;BME280;45797;47.466;9.486;2024-02-26T10:56:38;94080.13;;;12.25;53.17
37892;BME280;45797;47.466;9.486;2024-02-26T11:02:03;94086.53;;;12.22;53.22
37892;BME280;45797;47.466;9.486;2024-02-26T11:07:26;94103.56;;;12.02;53.94
37892;BME280;45797;47.466;9.486;2024-02-26T11:12:49;94109.88;;;11.75;54.28
37892;BME280;45797;47.466;9.486;2024-02-26T11:18:15;94119.66;;;11.65;55.03
37892;BME280;45797;47.466;9.486;2024-02-26T11:23:35;94120.00;;;11.62;55.00
37892;BME280;45797;47.466;9.486;2024-02-26T11:28:57;94122.59;;;11.62;54.97
37892;BME280;45797;47.466;9.486;2024-02-26T11:34:18;94102.78;;;11.59;55.04
37892;BME280;45797;47.466;9.486;2024-02-26T11:45:49;94100.59;;;11.47;55.31
37892;BME280;45797;47.466;9.486;2024-02-26T11:51:14;94115.63;;;11.36;55.48
37892;BME280;45797;47.466;9.486;2024-02-26T11:56:45;94108.44;;;11.38;55.47
37892;BME280;45797;47.466;9.486;2024-02-26T12:02:09;94094.53;;;11.46;55.26
37892;BME280;45797;47.466;9.486;2024-02-26T12:07:34;94082.63;;;11.60;55.11
37892;BME280;45797;47.466;9.486;2024-02-26T12:13:00;94066.59;;;11.79;54.66
37892;BME280;45797;47.466;9.486;2024-02-26T12:18:24;94056.50;;;12.09;54.83
37892;BME280;45797;47.466;9.486;2024-02-26T12:23:45;94059.63;;;12.37;54.05
37892;BME280;45797;47.466;9.486;2024-02-26T12:29:10;94067.34;;;12.46;53.77
37892;BME280;45797;47.466;9.486;2024-02-26T12:34:31;94074.53;;;12.12;54.55
37892;BME280;45797;47.466;9.486;2024-02-26T12:39:53;94078.81;;;12.05;54.92
37892;BME280;45797;47.466;9.486;2024-02-26T12:45:13;94101.44;;;11.97;54.56
37892;BME280;45797;47.466;9.486;2024-02-26T12:50:38;94098.25;;;11.78;55.38
37892;BME280;45797;47.466;9.486;2024-02-26T12:55:59;94092.81;;;11.71;55.52
37892;BME280;45797;47.466;9.486;2024-02-26T13:01:23;94096.78;;;11.75;55.68
37892;BME280;45797;47.466;9.486;2024-02-26T13:06:54;94094.78;;;11.69;55.82
37892;BME280;45797;47.466;9.486;2024-02-26T13:12:19;94099.97;;;11.53;55.96
37892;BME280;45797;47.466;9.486;2024-02-26T13:17:46;94102.25;;;11.48;56.12
37892;BME280;45797;47.466;9.486;2024-02-26T13:23:11;94091.72;;;11.39;56.07
37892;BME280;45797;47.466;9.486;2024-02-26T13:28:32;94098.38;;;11.26;56.27
37892;BME280;45797;47.466;9.486;2024-02-26T13:33:54;94088.69;;;11.18;56.71
37892;BME280;45797;47.466;9.486;2024-02-26T13:39:27;94090.63;;;11.16;56.45
37892;BME280;45797;47.466;9.486;2024-02-26T13:44:48;94090.00;;;11.22;56.60
37892;BME280;45797;47.466;9.486;2024-02-26T13:50:15;94086.78;;;11.36;55.96
37892;BME280;45797;47.466;9.486;2024-02-26T13:55:36;94076.72;;;11.58;55.43
37892;BME280;45797;47.466;9.486;2024-02-26T14:01:03;94076.22;;;11.62;55.62
37892;BME280;45797;47.466;9.486;2024-02-26T14:06:27;94074.75;;;11.60;55.49
37892;BME280;45797;47.466;9.486;2024-02-26T14:11:49;94067.53;;;11.62;55.62
37892;BME280;45797;47.466;9.486;2024-02-26T14:17:11;94047.91;;;11.66;55.99
37892;BME280;45797;47.466;9.486;2024-02-26T14:22:32;94057.06;;;11.70;55.64
37892;BME280;45797;47.466;9.486;2024-02-26T14:28:03;94058.38;;;11.66;56.30
37892;BME280;45797;47.466;9.486;2024-02-26T14:33:37;94059.66;;;11.54;56.22
37892;BME280;45797;47.466;9.486;2024-02-26T14:38:58;94066.97;;;11.34;56.51
37892;BME280;45797;47.466;9.486;2024-02-26T14:44:20;94075.22;;;11.13;56.78
37892;BME280;45797;47.466;9.486;2024-02-26T14:49:41;94082.72;;;11.08;56.73
37892;BME280;45797;47.466;9.486;2024-02-26T14:55:06;94088.13;;;11.06;56.99
37892;BME280;45797;47.466;9.486;2024-02-26T15:00:32;94091.22;;;11.02;56.99
37892;BME280;45797;47.466;9.486;2024-02-26T15:05:55;94084.63;;;10.98;57.37
37892;BME280;45797;47.466;9.486;2024-02-26T15:11:15;94086.44;;;10.97;57.16
37892;BME280;45797;47.466;9.486;2024-02-26T15:16:42;94102.09;;;10.89;57.39
37892;BME280;45797;47.466;9.486;2024-02-26T15:22:03;94103.56;;;10.83;57.68
37892;BME280;45797;47.466;9.486;2024-02-26T15:27:25;94113.41;;;10.90;57.32
37892;BME280;45797;47.466;9.486;2024-02-26T15:32:48;94108.03;;;10.91;57.37
37892;BME280;45797;47.466;9.486;2024-02-26T15:38:33;94121.69;;;10.77;57.54
37892;BME280;45797;47.466;9.486;2024-02-26T15:43:55;94125.66;;;10.81;57.71
37892;BME280;45797;47.466;9.486;2024-02-26T15:49:17;94125.84;;;10.87;57.48
37892;BME280;45797;47.466;9.486;2024-02-26T15:54:41;94135.66;;;10.85;57.72
37892;BME280;45797;47.466;9.486;2024-02-26T16:00:12;94147.09;;;10.84;57.95
37892;BME280;45797;47.466;9.486;2024-02-26T16:05:43;94158.34;;;10.77;57.97
37892;BME280;45797;47.466;9.486;2024-02-26T16:11:06;94163.41;;;10.78;57.99
37892;BME280;45797;47.466;9.486;2024-02-26T16:16:33;94175.41;;;10.81;58.00
37892;BME280;45797;47.466;9.486;2024-02-26T16:21:55;94197.84;;;10.83;58.13
37892;BME280;45797;47.466;9.486;2024-02-26T16:27:24;94201.59;;;10.81;58.43
37892;BME280;45797;47.466;9.486;2024-02-26T16:32:45;94205.47;;;10.77;58.56
37892;BME280;45797;47.466;9.486;2024-02-26T16:38:23;94216.09;;;10.75;58.40
37892;BME280;45797;47.466;9.486;2024-02-26T16:43:45;94227.41;;;10.76;58.65
37892;BME280;45797;47.466;9.486;2024-02-26T16:49:08;94234.75;;;10.72;58.49
37892;BME280;45797;47.466;9.486;2024-02-26T16:54:29;94236.81;;;10.69;58.39
37892;BME280;45797;47.466;9.486;2024-02-26T16:59:50;94256.94;;;10.68;58.94
37892;BME280;45797;47.466;9.486;2024-02-26T17:05:25;94262.50;;;10.65;58.71
37892;BME280;45797;47.466;9.486;2024-02-26T17:10:47;94263.47;;;10.64;59.17
37892;BME280;45797;47.466;9.486;2024-02-26T17:16:07;94262.94;;;10.61;58.88
37892;BME280;45797;47.466;9.486;2024-02-26T17:21:29;94272.72;;;10.58;58.79
37892;BME280;45797;47.466;9.486;2024-02-26T17:26:51;94278.13;;;10.57;59.42
37892;BME280;45797;47.466;9.486;2024-02-26T17:32:11;94289.88;;;10.53;60.07
37892;BME280;45797;47.466;9.486;2024-02-26T17:37:33;94283.28;;;10.49;59.57
37892;BME280;45797;47.466;9.486;2024-02-26T17:42:54;94300.25;;;10.45;59.40
37892;BME280;45797;47.466;9.486;2024-02-26T17:48:15;94303.13;;;10.42;59.68
37892;BME280;45797;47.466;9.486;2024-02-26T17:53:44;94303.44;;;10.39;59.61
37892;BME280;45797;47.466;9.486;2024-02-26T17:59:07;94305.09;;;10.40;59.46
37892;BME280;45797;47.466;9.486;2024-02-26T18:04:29;94301.81;;;10.38;59.47
37892;BME280;45797;47.466;9.486;2024-02-26T18:10:07;94304.88;;;10.33;59.61
37892;BME280;45797;47.466;9.486;2024-02-26T18:15:30;94302.69;;;10.28;59.79
37892;BME280;45797;47.466;9.486;2024-02-26T18:20:51;94300.63;;;10.22;59.82
37892;BME280;45797;47.466;9.486;2024-02-26T18:26:16;94302.19;;;10.15;60.31
37892;BME280;45797;47.466;9.486;2024-02-26T18:31:42;94312.53;;;10.07;60.24
37892;BME280;45797;47.466;9.486;2024-02-26T18:37:12;94322.75;;;10.00;60.25
37892;BME280;45797;47.466;9.486;2024-02-26T18:42:36;94332.00;;;9.95;60.05
37892;BME280;45797;47.466;9.486;2024-02-26T18:48:00;94337.66;;;9.90;60.48
37892;BME280;45797;47.466;9.486;2024-02-26T18:53:22;94339.03;;;9.85;60.55
37892;BME280;45797;47.466;9.486;2024-02-26T18:58:43;94349.09;;;9.80;60.71
37892;BME280;45797;47.466;9.486;2024-02-26T19:04:03;94351.03;;;9.78;60.28
37892;BME280;45797;47.466;9.486;2024-02-26T19:09:24;94348.56;;;9.76;60.09
37892;BME280;45797;47.466;9.486;2024-02-26T19:14:45;94347.03;;;9.73;60.48
37892;BME280;45797;47.466;9.486;2024-02-26T19:20:07;94361.53;;;9.68;60.34
37892;BME280;45797;47.466;9.486;2024-02-26T19:25:27;94363.56;;;9.64;60.52
37892;BME280;45797;47.466;9.486;2024-02-26T19:30:48;94367.31;;;9.62;60.57
37892;BME280;45797;47.466;9.486;2024-02-26T19:36:10;94362.78;;;9.54;60.55
37892;BME280;45797;47.466;9.486;2024-02-26T19:41:33;94357.41;;;9.46;60.96
37892;BME280;45797;47.466;9.486;2024-02-26T19:46:54;94358.00;;;9.40;60.71
37892;BME280;45797;47.466;9.486;2024-02-26T19:52:14;94366.81;;;9.29;61.16
37892;BME280;45797;47.466;9.486;2024-02-26T19:57:36;94384.38;;;9.18;61.13
37892;BME280;45797;47.466;9.486;2024-02-26T20:03:04;94396.91;;;9.04;61.54
37892;BME280;45797;47.466;9.486;2024-02-26T20:08:42;94405.00;;;8.92;61.75
37892;BME280;45797;47.466;9.486;2024-02-26T20:14:06;94413.50;;;8.84;61.91
37892;BME280;45797;47.466;9.486;2024-02-26T20:19:29;94421.19;;;8.76;61.80
37892;BME280;45797;47.466;9.486;2024-02-26T20:24:51;94430.25;;;8.72;61.93
37892;BME280;45797;47.466;9.486;2024-02-26T20:30:22;94430.91;;;8.64;61.83
37892;BME280;45797;47.466;9.486;2024-02-26T20:35:52;94441.03;;;8.57;61.77
37892;BME280;45797;47.466;9.486;2024-02-26T20:41:23;94451.56;;;8.46;61.67
37892;BME280;45797;47.466;9.486;2024-02-26T20:46:45;94463.94;;;8.44;62.37
37892;BME280;45797;47.466;9.486;2024-02-26T20:52:06;94468.44;;;8.42;61.91
37892;BME280;45797;47.466;9.486;2024-02-26T20:57:27;94488.88;;;8.37;62.30
37892;BME280;45797;47.466;9.486;2024-02-26T21:03:03;94490.31;;;8.30;62.40
37892;BME280;45797;47.466;9.486;2024-02-26T21:08:28;94509.81;;;8.26;62.93
37892;BME280;45797;47.466;9.486;2024-02-26T21:13:50;94513.22;;;8.26;62.53
37892;BME280;45797;47.466;9.486;2024-02-26T21:19:12;94517.34;;;8.29;62.28
37892;BME280;45797;47.466;9.486;2024-02-26T21:24:43;94519.28;;;8.27;62.35
37892;BME280;45797;47.466;9.486;2024-02-26T21:30:06;94523.41;;;8.29;62.45
37892;BME280;45797;47.466;9.486;2024-02-26T21:35:27;94535.63;;;8.29;62.60
37892;BME280;45797;47.466;9.486;2024-02-26T21:40:47;94537.97;;;8.32;62.53
37892;BME280;45797;47.466;9.486;2024-02-26T21:46:14;94536.06;;;8.34;62.14
37892;BME280;45797;47.466;9.486;2024-02-26T21:51:46;94553.28;;;8.37;62.42
37892;BME280;45797;47.466;9.486;2024-02-26T21:57:08;94553.84;;;8.40;62.33
37892;BME280;45797;47.466;9.486;2024-02-26T22:02:36;94561.09;;;8.37;62.28
37892;BME280;45797;47.466;9.486;2024-02-26T22:08:00;94575.94;;;8.36;62.30
37892;BME280;45797;47.466;9.486;2024-02-26T22:13:38;94588.16;;;8.36;62.31
37892;BME280;45797;47.466;9.486;2024-02-26T22:19:00;94596.53;;;8.39;62.52
37892;BME280;45797;47.466;9.486;2024-02-26T22:24:25;94601.38;;;8.44;62.22
37892;BME280;45797;47.466;9.486;2024-02-26T22:29:45;94603.47;;;8.50;62.39
37892;BME280;45797;47.466;9.486;2024-02-26T22:35:06;94615.31;;;8.54;62.33
37892;BME280;45797;47.466;9.486;2024-02-26T22:40:44;94613.25;;;8.57;62.46
37892;BME280;45797;47.466;9.486;2024-02-26T22:46:04;94619.78;;;8.63;62.61
37892;BME280;45797;47.466;9.486;2024-02-26T22:51:32;94609.06;;;8.66;62.63
37892;BME280;45797;47.466;9.486;2024-02-26T22:56:55;94622.66;;;8.70;62.54
37892;BME280;45797;47.466;9.486;2024-02-26T23:02:17;94625.53;;;8.67;62.70
37892;BME280;45797;47.466;9.486;2024-02-26T23:07:49;94644.09;;;8.64;62.87
37892;BME280;45797;47.466;9.486;2024-02-26T23:13:19;94651.19;;;8.62;62.97
37892;BME280;45797;47.466;9.486;2024-02-26T23:18:43;94653.78;;;8.62;62.94
37892;BME280;45797;47.466;9.486;2024-02-26T23:24:04;94664.38;;;8.60;63.26
37892;BME280;45797;47.466;9.486;2024-02-26T23:29:25;94662.59;;;8.61;63.47
37892;BME280;45797;47.466;9.486;2024-02-26T23:35:01;94667.25;;;8.57;63.23
37892;BME280;45797;47.466;9.486;2024-02-26T23:40:23;94682.06;;;8.56;63.24
37892;BME280;45797;47.466;9.486;2024-02-26T23:45:48;94685.50;;;8.57;63.28
37892;BME280;45797;47.466;9.486;2024-02-26T23:51:09;94693.47;;;8.55;63.35
37892;BME280;45797;47.466;9.486;2024-02-26T23:56:29;94702.47;;;8.51;63.50
